Time;durP1;ratioP1;P1;durP2;ratioP2;P2;SDS_P1;SDS_P2;PMS_P1;PMS_P2;Temp;Humidity;BMP_temperature;BMP_pressure;BME280_temperature;BME280_humidity;BME280_pressure;Samples;Min_cycle;Max_cycle;Signal;HPM_P1;HPM_P2
2024/01/01 00:00:04;;;;;;;89.97;59.40;;;5.10;81.30;;;4.03;86.02;97140.72;5060071;28;20446;-68
2024/01/01 00:02:31;;;;;;;90.27;62.50;;;5.10;81.30;;;3.94;85.94;97143.53;5050269;28;20571;-69
2024/01/01 00:05:00;;;;;;;99.00;71.33;;;5.00;81.30;;;3.92;86.09;97144.75;5049346;28;20449;-69
2024/01/01 00:07:28;;;;;;;107.90;75.70;;;5.00;81.40;;;3.95;85.42;97145.19;5050098;28;20516;-69
2024/01/01 00:09:55;;;;;;;109.20;76.60;;;5.00;81.50;;;3.95;86.56;97139.84;5053101;28;20506;-68
2024/01/01 00:12:22;;;;;;;101.43;72.67;;;5.00;81.50;;;3.88;85.99;97147.00;5049299;28;20480;-69
2024/01/01 00:14:49;;;;;;;96.27;68.00;;;4.90;82.00;;;3.83;86.54;97152.06;5050279;28;20442;-69
2024/01/01 00:17:16;;;;;;;88.47;63.10;;;4.90;81.70;;;3.86;86.71;97154.34;5049673;28;20464;-69
2024/01/01 00:19:43;;;;;;;88.57;59.60;;;4.90;81.80;;;3.72;87.06;97145.41;5049854;28;20888;-70
2024/01/01 00:22:12;;;;;;;90.63;63.97;;;4.80;81.90;;;3.74;87.43;97137.22;5047860;28;20470;-69
2024/01/01 00:24:39;;;;;;;88.40;62.70;;;4.80;82.10;;;3.74;87.56;97142.56;5049893;28;20451;-69
2024/01/01 00:27:06;;;;;;;83.37;55.87;;;4.80;82.30;;;3.68;87.50;97142.28;5048590;28;20445;-67
2024/01/01 00:29:34;;;;;;;114.10;89.53;;;4.70;82.50;;;3.65;87.46;97134.66;5060061;28;20495;-69
2024/01/01 00:32:02;;;;;;;68.27;44.73;;;4.70;82.60;;;3.56;88.57;97135.81;5048804;28;20454;-70
2024/01/01 00:34:29;;;;;;;66.30;46.10;;;4.60;82.60;;;3.48;89.23;97135.97;5050871;28;20465;-69
2024/01/01 00:36:56;;;;;;;70.07;47.47;;;4.50;83.00;;;3.50;88.60;97136.59;5049420;28;20958;-70
2024/01/01 00:39:25;;;;;;;46.70;32.50;;;4.50;83.10;;;3.46;89.40;97130.00;5050855;28;20458;-69
2024/01/01 00:41:52;;;;;;;46.60;33.10;;;4.50;83.40;;;3.43;89.64;97117.84;5049329;28;20983;-70
2024/01/01 00:44:19;;;;;;;43.10;30.87;;;4.50;83.50;;;3.37;89.69;97127.44;5052951;28;20933;-69
2024/01/01 00:46:47;;;;;;;91.37;51.57;;;4.40;83.80;;;3.36;89.80;97131.13;5049367;28;20506;-69
2024/01/01 00:49:14;;;;;;;49.23;37.43;;;4.40;84.20;;;3.37;90.36;97127.44;5047777;28;20958;-68
2024/01/01 00:51:41;;;;;;;40.27;29.27;;;4.40;84.30;;;3.36;90.11;97123.13;5050177;28;20457;-68
2024/01/01 00:54:09;;;;;;;64.97;48.30;;;4.40;84.40;;;3.33;90.10;97123.50;5050283;28;20511;-69
2024/01/01 00:56:37;;;;;;;79.20;56.63;;;4.40;84.40;;;3.36;90.13;97128.47;5051621;28;20464;-69
2024/01/01 00:59:04;;;;;;;58.70;39.30;;;4.40;84.60;;;3.29;90.70;97124.06;5049707;28;20502;-69
2024/01/01 01:01:32;;;;;;;44.37;32.73;;;4.30;84.50;;;3.32;90.36;97129.03;5048438;28;20476;-68
2024/01/01 01:04:00;;;;;;;69.40;50.47;;;4.40;84.80;;;3.39;90.62;97136.09;5042562;28;20783;-69
2024/01/01 01:06:28;;;;;;;85.40;67.57;;;4.40;84.80;;;2.94;89.83;97058.03;5047317;28;20461;-68
2024/01/01 01:08:55;;;;;;;138.90;97.73;;;4.50;84.70;;;3.50;89.55;97125.91;5048300;28;20458;-68
2024/01/01 01:11:22;;;;;;;30.07;20.73;;;4.60;84.50;;;3.47;89.18;97100.41;5052628;28;20504;-69
2024/01/01 01:13:51;;;;;;;23.80;15.20;;;4.70;84.30;;;3.65;88.71;97129.31;5045697;28;20454;-68
2024/01/01 01:16:19;;;;;;;21.23;13.10;;;4.70;83.80;;;3.71;88.38;97130.41;5045543;28;20454;-69
2024/01/01 01:18:46;;;;;;;15.73;11.73;;;4.80;83.60;;;3.83;87.63;97139.56;5050233;28;20486;-68
2024/01/01 01:21:14;;;;;;;16.67;12.00;;;4.80;83.50;;;3.85;87.67;97143.88;5047957;28;20582;-67
2024/01/01 01:23:43;;;;;;;16.30;11.67;;;4.90;83.30;;;3.83;87.96;97146.72;5049161;28;20461;-68
2024/01/01 01:26:10;;;;;;;12.67;10.10;;;4.90;83.50;;;3.87;87.63;97148.00;5048226;28;20469;-68
2024/01/01 01:28:38;;;;;;;21.80;15.53;;;4.90;83.50;;;3.83;87.36;97154.75;5041475;28;20946;-68
2024/01/01 01:31:07;;;;;;;17.13;12.67;;;4.90;83.00;;;3.87;87.24;97156.03;5049992;28;20457;-69
2024/01/01 01:33:34;;;;;;;19.73;12.07;;;4.90;82.90;;;3.92;87.13;97150.91;5045238;28;20957;-68
2024/01/01 01:36:01;;;;;;;32.23;23.80;;;5.00;83.00;;;4.15;86.08;97157.84;5047199;28;20493;-69
2024/01/01 01:38:29;;;;;;;15.73;11.40;;;5.10;82.90;;;3.88;86.18;97147.00;5049264;28;20461;-68
2024/01/01 01:40:58;;;;;;;16.23;11.33;;;5.10;82.50;;;3.97;86.14;97155.69;5049185;28;20450;-69
2024/01/01 01:43:26;;;;;;;12.53;9.50;;;5.10;82.40;;;4.02;86.49;97157.75;5055028;28;20564;-68
2024/01/01 01:45:55;;;;;;;14.37;9.90;;;5.10;82.30;;;3.99;85.79;97150.13;5047848;28;20458;-69
2024/01/01 01:48:24;;;;;;;13.50;10.80;;;5.10;82.10;;;4.08;85.49;97138.28;5055741;28;20461;-68
2024/01/01 01:50:51;;;;;;;12.70;9.20;;;5.20;82.20;;;4.07;85.41;97139.31;5050043;28;20503;-69
2024/01/01 01:53:23;;;;;;;13.83;9.47;;;5.20;82.00;;;4.03;85.56;97141.53;5047690;28;20450;-70
2024/01/01 01:55:54;;;;;;;12.30;7.53;;;5.20;82.00;;;4.06;85.62;97140.34;5049288;28;20452;-69
2024/01/01 01:58:22;;;;;;;13.30;8.00;;;5.10;81.90;;;3.95;85.50;97139.03;5041115;28;20450;-69
2024/01/01 02:00:51;;;;;;;10.10;7.93;;;5.00;82.00;;;3.90;86.93;97131.59;5046051;28;20456;-69
2024/01/01 02:03:19;;;;;;;10.33;8.50;;;5.00;82.30;;;3.93;87.51;97128.50;5045354;28;20448;-69
2024/01/01 02:05:47;;;;;;;12.40;8.93;;;4.90;82.60;;;3.93;86.27;97125.00;5052031;28;20453;-69
2024/01/01 02:08:16;;;;;;;13.97;8.37;;;5.00;82.60;;;3.89;86.34;97124.59;5037238;28;20453;-68
2024/01/01 02:10:44;;;;;;;10.47;7.60;;;5.00;82.60;;;3.90;86.39;97126.25;5053030;28;21027;-68
2024/01/01 02:13:24;;;;;;;12.50;8.00;;;5.00;82.50;;;3.99;86.46;97123.41;5047135;28;20829;-68
2024/01/01 02:15:52;;;;;;;7.97;6.77;;;5.00;82.50;;;3.85;86.11;97091.25;5047711;28;20449;-67
2024/01/01 02:18:19;;;;;;;10.00;6.30;;;5.10;82.50;;;3.93;85.78;97099.13;5047206;28;20457;-68
2024/01/01 02:20:49;;;;;;;9.27;6.30;;;5.10;82.30;;;4.15;84.92;97123.09;5050027;28;20449;-69
2024/01/01 02:23:19;;;;;;;10.00;6.80;;;5.20;82.10;;;4.10;85.44;97112.16;5055076;28;20573;-68
2024/01/01 02:25:48;;;;;;;10.40;6.00;;;5.20;82.10;;;4.22;85.15;97129.31;5041923;28;20568;-68
2024/01/01 02:28:15;;;;;;;9.43;5.47;;;5.20;82.00;;;4.08;85.08;97124.91;5046783;28;20539;-68
2024/01/01 02:30:42;;;;;;;9.53;6.37;;;5.20;81.90;;;4.15;84.71;97132.97;5047345;28;20449;-68
2024/01/01 02:33:11;;;;;;;7.10;5.87;;;5.20;81.80;;;4.03;84.86;97128.16;5040490;28;20451;-67
2024/01/01 02:35:39;;;;;;;7.83;6.07;;;5.20;81.80;;;3.95;85.44;97123.81;5045687;28;20445;-68
2024/01/01 02:38:07;;;;;;;11.87;6.73;;;5.00;81.70;;;3.99;85.17;97123.41;5063041;28;20861;-72
2024/01/01 02:40:37;;;;;;;7.83;5.53;;;5.00;81.80;;;3.91;85.45;97132.41;5049255;28;20453;-68
2024/01/01 02:43:04;;;;;;;10.53;6.70;;;5.00;82.00;;;3.81;85.41;97117.53;5046826;28;20997;-69
2024/01/01 02:45:33;;;;;;;11.23;7.03;;;5.00;82.00;;;3.92;85.33;97129.53;5050527;28;20809;-69
2024/01/01 02:48:01;;;;;;;9.50;6.33;;;4.90;81.90;;;3.83;85.35;97128.03;5037408;28;20445;-69
2024/01/01 02:50:29;;;;;;;8.27;6.47;;;4.80;81.90;;;3.64;86.12;97117.00;5052820;28;20475;-68
2024/01/01 02:52:56;;;;;;;9.60;5.70;;;4.80;82.10;;;3.66;85.86;97125.63;5052261;28;20463;-67
2024/01/01 02:55:24;;;;;;;10.60;7.43;;;4.80;82.30;;;3.62;86.99;97143.06;5051220;28;20457;-67
2024/01/01 02:57:52;;;;;;;9.67;6.17;;;4.70;82.30;;;3.57;86.86;97121.47;5046823;28;20458;-67
2024/01/01 03:00:20;;;;;;;9.40;6.50;;;4.70;82.60;;;3.67;86.75;97137.97;5048618;28;20457;-67
2024/01/01 03:02:47;;;;;;;8.40;6.00;;;4.70;82.60;;;3.74;86.53;97138.03;5051231;28;20567;-68
2024/01/01 03:05:14;;;;;;;12.60;7.17;;;4.80;82.50;;;3.82;86.04;97142.41;5050072;28;20508;-68
2024/01/01 03:07:42;;;;;;;9.20;6.50;;;4.80;82.50;;;3.73;86.06;97146.25;5062062;28;20490;-68
2024/01/01 03:10:08;;;;;;;11.97;7.40;;;4.80;82.20;;;3.79;86.20;97146.31;5063538;28;20460;-68
2024/01/01 03:12:38;;;;;;;11.13;6.63;;;4.80;82.30;;;3.83;86.33;97149.41;5050355;28;20460;-67
2024/01/01 03:15:09;;;;;;;9.03;6.70;;;4.90;82.30;;;3.89;85.72;97148.66;5039553;28;20476;-68
2024/01/01 03:17:38;;;;;;;8.23;6.63;;;4.90;82.20;;;4.02;84.98;97155.09;5047931;28;20528;-67
2024/01/01 03:20:09;;;;;;;9.83;7.00;;;5.00;82.10;;;4.06;85.50;97140.34;5047377;28;20462;-68
2024/01/01 03:22:38;;;;;;;9.20;7.17;;;5.00;82.00;;;3.92;85.46;97145.56;5046387;28;20473;-68
2024/01/01 03:25:07;;;;;;;13.70;7.77;;;5.00;81.80;;;3.87;85.43;97148.00;5048831;28;20503;-68
2024/01/01 03:27:35;;;;;;;9.50;7.40;;;4.90;81.80;;;3.88;85.94;97138.97;5051099;28;20453;-68
2024/01/01 03:30:05;;;;;;;9.27;6.53;;;5.00;82.00;;;3.92;85.56;97132.22;5058663;28;20477;-68
2024/01/01 03:32:34;;;;;;;11.27;7.97;;;5.00;81.90;;;3.86;85.63;97146.34;5059472;28;20543;-68
2024/01/01 03:35:04;;;;;;;10.20;6.73;;;4.90;81.90;;;3.79;85.82;97134.78;5049557;28;20456;-68
2024/01/01 03:37:32;;;;;;;12.07;7.70;;;4.80;81.90;;;3.73;86.67;97146.25;5050745;28;20973;-68
2024/01/01 03:39:59;;;;;;;10.87;7.80;;;4.80;82.00;;;3.70;86.26;97144.78;5064315;28;20460;-69
2024/01/01 03:42:27;;;;;;;10.93;8.57;;;4.70;82.10;;;3.67;85.66;97143.31;5050010;28;21065;-68
2024/01/01 03:44:54;;;;;;;10.50;8.10;;;4.70;82.00;;;3.69;85.68;97141.28;5051693;28;20511;-68
2024/01/01 03:47:22;;;;;;;12.70;8.87;;;4.70;82.00;;;3.63;85.99;97136.72;5050326;28;20449;-68
2024/01/01 03:49:50;;;;;;;13.83;8.57;;;4.70;81.90;;;3.62;85.86;97144.91;5051795;28;20468;-68
2024/01/01 03:52:18;;;;;;;12.03;7.87;;;4.70;82.30;;;3.70;85.45;97147.47;5049516;28;20446;-68
2024/01/01 03:54:45;;;;;;;10.10;8.03;;;4.70;82.00;;;3.70;85.70;97147.47;5051624;28;20450;-68
2024/01/01 03:57:12;;;;;;;12.20;9.00;;;4.70;82.20;;;3.65;86.70;97156.03;5048001;28;20464;-68
2024/01/01 03:59:40;;;;;;;12.00;7.80;;;4.70;82.30;;;3.67;86.45;97155.88;5054868;28;20856;-67
2024/01/01 04:02:10;;;;;;;14.83;8.70;;;4.70;82.30;;;3.72;85.50;97149.94;5037201;28;20543;-68
2024/01/01 04:04:37;;;;;;;12.47;8.17;;;4.70;82.20;;;3.83;85.05;97147.56;5044083;28;20548;-67
2024/01/01 04:07:07;;;;;;;15.30;8.57;;;4.80;82.10;;;3.82;85.01;97153.09;5064709;28;20454;-67
2024/01/01 04:09:37;;;;;;;14.60;8.70;;;4.80;82.10;;;3.86;85.11;97165.03;5029489;28;20638;-67
2024/01/01 04:12:05;;;;;;;10.07;7.53;;;4.90;82.00;;;3.97;85.29;97159.19;5050660;28;20503;-67
2024/01/01 04:14:33;;;;;;;10.80;8.30;;;5.00;82.20;;;4.04;85.56;97155.75;5049929;28;20447;-68
2024/01/01 04:17:03;;;;;;;14.43;8.43;;;5.00;82.30;;;3.98;87.14;97160.00;5048430;28;20845;-67
2024/01/01 04:19:30;;;;;;;12.07;8.33;;;5.00;82.60;;;3.93;86.50;97157.06;5049716;28;20454;-68
2024/01/01 04:21:57;;;;;;;12.00;8.80;;;5.00;82.30;;;3.86;86.42;97149.00;5038247;28;20569;-69
2024/01/01 04:24:26;;;;;;;14.60;9.20;;;4.90;82.40;;;3.75;86.50;97144.22;5049454;28;20508;-68
2024/01/01 04:26:54;;;;;;;16.07;9.80;;;4.80;82.50;;;3.69;86.91;97141.28;5048546;28;20468;-68
2024/01/01 04:29:21;;;;;;;14.70;9.30;;;4.80;82.60;;;3.62;87.28;97151.09;5049706;28;20452;-69
2024/01/01 04:31:49;;;;;;;14.70;9.60;;;4.70;82.60;;;3.60;87.70;97139.78;5048560;28;20464;-68
2024/01/01 04:34:17;;;;;;;14.97;9.43;;;4.70;82.90;;;3.60;87.83;97147.78;5049323;28;20524;-68
2024/01/01 04:36:45;;;;;;;15.47;9.97;;;4.70;83.00;;;3.63;88.30;97155.41;5047915;28;20449;-68
2024/01/01 04:39:13;;;;;;;14.23;9.93;;;4.60;83.10;;;3.59;88.32;97150.66;5050193;28;20468;-69
2024/01/01 04:41:41;;;;;;;15.50;9.80;;;4.60;83.10;;;3.64;88.66;97153.56;5030815;28;20500;-68
2024/01/01 04:44:09;;;;;;;16.93;10.73;;;4.70;83.40;;;3.63;88.45;97152.75;5049330;28;20836;-67
2024/01/01 04:46:36;;;;;;;16.33;10.47;;;4.70;83.60;;;3.67;88.68;97158.53;5049100;28;20457;-67
2024/01/01 04:49:04;;;;;;;15.40;10.30;;;4.70;83.80;;;3.62;88.70;97159.09;5049186;28;20453;-68
2024/01/01 04:51:31;;;;;;;14.63;10.43;;;4.70;84.00;;;3.59;88.93;97162.16;5047844;28;20458;-67
2024/01/01 04:53:58;;;;;;;14.20;10.00;;;4.70;84.00;;;3.49;89.61;97161.66;5050732;28;20441;-68
2024/01/01 04:56:26;;;;;;;14.13;9.87;;;4.60;84.10;;;3.47;89.89;97172.50;5048112;28;20449;-67
2024/01/01 04:58:55;;;;;;;13.60;8.97;;;4.60;84.20;;;3.40;90.64;97159.09;5050698;28;20465;-68
2024/01/01 05:01:22;;;;;;;13.80;9.80;;;4.50;84.40;;;3.27;89.87;97137.63;5049716;28;21104;-67
2024/01/01 05:03:49;;;;;;;14.97;9.43;;;4.50;84.40;;;3.49;90.63;97156.31;5048575;28;20491;-68
2024/01/01 05:06:17;;;;;;;14.87;9.50;;;4.50;84.70;;;3.63;89.42;97157.25;5047954;28;20512;-68
2024/01/01 05:08:44;;;;;;;15.80;9.33;;;4.60;84.30;;;3.64;88.99;97159.75;5051590;28;20949;-68
2024/01/01 05:11:11;;;;;;;10.50;7.70;;;4.70;84.20;;;3.86;88.05;97162.38;5030305;28;20869;-68
2024/01/01 05:13:38;;;;;;;12.10;8.17;;;4.80;84.30;;;3.90;88.01;97162.81;5050335;28;20480;-68
2024/01/01 05:16:12;;;;;;;10.03;7.37;;;4.90;83.80;;;3.91;87.75;97154.63;5038155;28;20452;-68
2024/01/01 05:18:39;;;;;;;13.53;8.10;;;4.90;83.70;;;3.89;88.60;97159.34;5050447;28;20449;-68
2024/01/01 05:21:06;;;;;;;13.17;8.53;;;4.90;83.60;;;3.87;87.30;97134.66;5047254;28;20506;-68
2024/01/01 05:23:34;;;;;;;14.50;8.70;;;5.00;83.40;;;3.87;88.00;97163.22;5045312;28;20481;-67
2024/01/01 05:26:01;;;;;;;15.07;9.00;;;4.90;83.20;;;3.78;87.41;97155.31;5056475;28;20453;-67
2024/01/01 05:28:28;;;;;;;12.17;8.27;;;4.90;83.10;;;3.63;88.28;97158.09;5056002;28;20440;-68
2024/01/01 05:30:56;;;;;;;13.27;8.30;;;4.80;83.00;;;3.61;88.35;97160.13;5047670;28;20915;-68
2024/01/01 05:33:24;;;;;;;13.10;9.00;;;4.70;83.00;;;3.51;88.78;97176.47;5043489;28;20462;-67
2024/01/01 05:35:52;;;;;;;12.77;8.80;;;4.60;83.30;;;3.46;89.54;97167.38;5045214;28;20461;-68
2024/01/01 05:38:20;;;;;;;12.23;7.97;;;4.60;83.60;;;3.44;88.95;97169.41;5045730;28;20467;-68
2024/01/01 05:40:47;;;;;;;12.07;8.10;;;4.60;83.60;;;3.48;88.87;97178.69;5050001;28;20447;-67
2024/01/01 05:43:15;;;;;;;12.20;8.23;;;4.50;83.70;;;3.54;89.07;97177.91;5047749;28;20469;-68
2024/01/01 05:45:42;;;;;;;11.60;7.87;;;4.60;84.00;;;3.65;88.90;97181.94;5049670;28;20498;-68
2024/01/01 05:48:10;;;;;;;11.47;7.83;;;4.60;83.80;;;3.58;88.40;97179.22;5047695;28;20535;-69
2024/01/01 05:50:38;;;;;;;10.67;7.50;;;4.60;83.60;;;3.61;88.00;97186.84;5050165;28;20510;-67
2024/01/01 05:53:06;;;;;;;10.67;7.90;;;4.70;83.40;;;3.64;87.46;97182.94;5048839;28;20453;-67
2024/01/01 05:55:34;;;;;;;13.27;8.17;;;4.70;83.30;;;3.46;88.62;97170.06;5048300;28;20452;-67
2024/01/01 05:58:02;;;;;;;10.90;7.50;;;4.70;83.50;;;3.59;88.20;97188.88;5063054;28;20464;-68
2024/01/01 06:00:29;;;;;;;12.83;7.93;;;4.70;83.30;;;3.59;88.37;97188.88;5049934;28;20459;-68
2024/01/01 06:02:56;;;;;;;10.50;7.40;;;4.70;83.30;;;3.56;87.73;97183.91;5048367;28;20477;-68
2024/01/01 06:05:23;;;;;;;10.73;7.17;;;4.60;83.30;;;3.58;88.19;97189.06;5038613;28;20453;-69
2024/01/01 06:07:52;;;;;;;13.53;7.23;;;4.60;83.20;;;3.57;88.22;97190.91;5048663;28;20457;-68
2024/01/01 06:10:19;;;;;;;13.13;6.40;;;4.70;83.40;;;3.67;88.51;97195.94;5049404;28;20463;-69
2024/01/01 06:12:47;;;;;;;14.47;7.17;;;4.70;83.50;;;3.67;88.23;97202.09;5046487;28;20438;-67
2024/01/01 06:15:14;;;;;;;10.00;6.27;;;4.80;83.60;;;3.86;86.64;97205.13;5049199;28;20520;-68
2024/01/01 06:17:44;;;;;;;10.50;6.80;;;4.80;83.00;;;3.83;86.50;97213.53;5048115;28;20450;-68
2024/01/01 06:20:12;;;;;;;9.33;6.10;;;4.80;83.00;;;3.82;87.01;97209.22;5048737;28;20825;-68
2024/01/01 06:22:39;;;;;;;9.87;6.40;;;4.90;83.00;;;3.72;87.17;97198.84;5052801;28;20483;-67
2024/01/01 06:25:10;;;;;;;11.20;6.57;;;4.90;83.10;;;3.86;87.53;97213.16;5064339;28;20453;-67
2024/01/01 06:27:37;;;;;;;10.87;6.90;;;4.90;83.30;;;3.83;88.23;97205.53;5050985;28;20518;-68
2024/01/01 06:30:07;;;;;;;9.50;6.77;;;4.90;83.70;;;3.83;88.24;97216.22;5053192;28;20468;-67
2024/01/01 06:32:34;;;;;;;11.97;7.20;;;4.90;83.50;;;3.77;88.58;97207.09;5052663;28;20472;-68
2024/01/01 06:35:02;;;;;;;11.00;6.10;;;4.90;83.30;;;3.57;87.61;97161.53;5053015;28;20437;-68
2024/01/01 06:37:29;;;;;;;7.47;6.00;;;4.90;83.50;;;3.90;87.56;97217.13;5044911;28;20460;-68
2024/01/01 06:39:56;;;;;;;8.57;5.90;;;4.90;83.40;;;3.91;88.26;97212.56;5052002;28;20450;-68
2024/01/01 06:42:24;;;;;;;12.20;7.00;;;5.00;83.40;;;3.90;87.90;97205.56;5052218;28;20650;-67
2024/01/01 06:44:52;;;;;;;7.97;6.10;;;5.00;83.20;;;3.83;87.89;97195.66;5053208;28;20453;-67
2024/01/01 06:47:22;;;;;;;9.03;5.83;;;4.90;83.10;;;3.69;88.55;97217.94;5048778;28;20548;-67
2024/01/01 06:49:49;;;;;;;8.50;5.60;;;4.80;83.30;;;3.58;88.68;97211.28;5051413;28;20457;-67
2024/01/01 06:52:16;;;;;;;8.53;5.70;;;4.70;83.50;;;3.48;89.15;97214.22;5051063;28;20469;-67
2024/01/01 06:54:43;;;;;;;10.80;5.40;;;4.60;83.80;;;3.41;89.56;97224.03;5056968;28;20531;-67
2024/01/01 06:57:11;;;;;;;9.37;5.43;;;4.50;83.90;;;3.33;89.75;97226.81;5058866;28;20447;-67
2024/01/01 06:59:39;;;;;;;10.80;6.27;;;4.40;84.30;;;3.36;90.64;97226.44;5054565;28;20492;-67
2024/01/01 07:02:07;;;;;;;7.70;5.23;;;4.40;84.70;;;3.49;90.12;97226.59;5048278;28;20509;-69
2024/01/01 07:04:34;;;;;;;9.23;5.53;;;4.50;84.70;;;3.50;89.92;97220.25;5049435;28;20473;-70
2024/01/01 07:07:01;;;;;;;9.53;5.87;;;4.60;84.50;;;3.47;89.01;97225.13;5047364;28;20462;-70
2024/01/01 07:09:28;;;;;;;9.43;5.97;;;4.60;84.30;;;3.57;89.53;97212.28;5051454;28;20445;-70
2024/01/01 07:11:57;;;;;;;8.50;4.90;;;4.60;84.60;;;3.63;89.04;97227.53;5055766;28;20446;-69
2024/01/01 07:14:25;;;;;;;8.47;5.70;;;4.60;84.40;;;3.63;88.99;97226.69;5048722;28;20823;-70
2024/01/01 07:16:54;;;;;;;12.87;5.43;;;4.70;84.20;;;3.57;89.06;97224.81;5051071;28;20479;-70
2024/01/01 07:19:22;;;;;;;9.20;5.80;;;4.70;84.10;;;3.68;88.79;97230.47;5051338;28;20457;-69
2024/01/01 07:21:49;;;;;;;9.93;5.70;;;4.80;83.90;;;3.76;88.80;97242.88;5045008;28;20842;-70
2024/01/01 07:24:16;;;;;;;7.40;5.70;;;4.80;83.80;;;3.84;87.63;97244.59;5050032;28;20616;-69
2024/01/01 07:26:44;;;;;;;6.97;4.83;;;4.90;83.70;;;3.82;87.79;97246.63;5046340;28;20476;-70
2024/01/01 07:29:11;;;;;;;7.87;5.40;;;4.90;83.60;;;3.93;87.92;97248.78;5049530;28;21191;-68
2024/01/01 07:31:38;;;;;;;10.63;5.07;;;4.90;83.40;;;3.87;87.60;97244.22;5049671;28;20446;-70
2024/01/01 07:34:07;;;;;;;8.87;5.40;;;5.00;83.30;;;3.86;87.21;97226.50;5052106;28;20460;-70
2024/01/01 07:36:34;;;;;;;7.27;5.30;;;5.00;83.10;;;3.93;86.82;97235.44;5037396;28;20521;-70
2024/01/01 07:39:02;;;;;;;8.50;4.60;;;5.00;82.80;;;3.88;86.71;97243.22;5049260;28;20549;-69
2024/01/01 07:41:29;;;;;;;6.87;5.00;;;5.00;82.90;;;3.86;86.62;97249.75;5050058;28;20961;-70
2024/01/01 07:43:57;;;;;;;8.53;5.10;;;5.00;82.60;;;3.91;86.33;97240.16;5063849;28;20842;-70
2024/01/01 07:46:28;;;;;;;8.60;4.90;;;4.90;82.70;;;3.91;86.73;97253.50;5049013;28;20540;-71
2024/01/01 07:49:00;;;;;;;8.77;5.10;;;4.90;82.80;;;3.86;85.55;97239.88;5047455;28;20480;-70
2024/01/01 07:51:31;;;;;;;8.37;5.23;;;4.90;82.50;;;3.73;86.40;97237.91;5035393;28;20462;-70
2024/01/01 07:53:58;;;;;;;7.40;5.20;;;4.80;82.60;;;3.66;87.75;97248.53;5054662;28;20567;-70
2024/01/01 07:56:43;;;;;;;8.17;4.87;;;4.80;82.90;;;3.59;87.48;97236.97;5049948;28;20464;-70
2024/01/01 07:59:12;;;;;;;6.97;4.67;;;4.70;83.00;;;3.71;87.06;97241.78;5065664;28;20461;-70
2024/01/01 08:01:41;;;;;;;8.30;4.73;;;4.80;83.00;;;3.82;86.85;97243.94;5050896;28;20475;-69
2024/01/01 08:04:09;;;;;;;6.93;4.20;;;4.80;82.80;;;3.76;86.75;97245.53;5049728;28;21219;-69
2024/01/01 08:06:39;;;;;;;7.47;4.53;;;4.90;82.70;;;4.08;85.01;97262.06;5037851;28;20454;-69
2024/01/01 08:09:20;;;;;;;5.10;3.67;;;5.00;82.40;;;3.97;85.72;97260.75;5049557;28;20515;-69
2024/01/01 08:11:49;;;;;;;7.10;4.70;;;5.10;82.20;;;4.02;84.56;97272.69;5050191;28;20448;-69
2024/01/01 08:14:16;;;;;;;8.80;4.93;;;5.10;82.10;;;4.07;85.10;97273.78;5049163;28;20825;-70
2024/01/01 08:16:44;;;;;;;8.80;4.20;;;5.10;82.00;;;3.96;84.60;97268.97;5053912;28;21091;-69
2024/01/01 08:19:11;;;;;;;11.40;5.23;;;5.00;81.90;;;3.94;85.46;97276.34;5055863;28;20452;-69
2024/01/01 08:21:40;;;;;;;7.10;4.50;;;5.00;82.10;;;4.09;84.93;97278.94;5053996;28;20790;-69
2024/01/01 08:24:08;;;;;;;9.97;3.80;;;5.10;82.00;;;4.29;83.22;97283.63;5052238;28;20470;-69
2024/01/01 08:26:35;;;;;;;6.43;4.03;;;5.30;81.70;;;4.52;83.19;97284.25;5050407;28;20863;-70
2024/01/01 08:29:03;;;;;;;9.30;4.23;;;5.40;81.50;;;4.51;82.59;97287.94;5049270;28;20999;-70
2024/01/01 08:31:30;;;;;;;8.20;4.23;;;5.50;81.20;;;4.53;81.45;97293.09;5043237;28;20473;-69
2024/01/01 08:33:59;;;;;;;5.87;3.60;;;5.60;80.80;;;4.74;81.00;97294.06;5048465;28;20453;-70
2024/01/01 08:36:27;;;;;;;5.50;3.53;;;5.70;80.50;;;4.90;80.40;97280.38;5031744;28;20452;-70
2024/01/01 08:38:56;;;;;;;7.07;3.80;;;5.80;80.40;;;4.95;79.26;97287.81;5050311;28;20457;-70
2024/01/01 08:41:23;;;;;;;6.20;3.83;;;5.90;79.90;;;5.05;79.16;97282.09;5047196;28;21003;-71
2024/01/01 08:43:56;;;;;;;10.07;3.20;;;6.00;79.90;;;5.29;78.17;97283.44;5050126;28;20478;-70
2024/01/01 08:46:24;;;;;;;6.70;3.33;;;6.10;79.50;;;5.17;78.67;97279.69;5041850;28;20448;-69
2024/01/01 08:48:52;;;;;;;5.47;3.87;;;6.10;79.00;;;5.34;76.75;97291.69;5050864;28;20530;-70
2024/01/01 08:51:20;;;;;;;4.87;3.33;;;6.20;78.70;;;5.28;76.62;97287.16;5048889;28;20813;-70
2024/01/01 08:53:48;;;;;;;5.50;3.10;;;6.30;78.30;;;5.35;76.12;97293.34;5050888;28;20519;-70
2024/01/01 08:56:18;;;;;;;6.67;3.13;;;6.30;77.90;;;5.47;76.61;97295.47;5045082;28;20507;-69
2024/01/01 08:58:45;;;;;;;8.27;3.27;;;6.40;78.00;;;5.43;76.43;97291.53;5045118;28;20442;-70
2024/01/01 09:01:12;;;;;;;7.30;3.30;;;6.40;77.70;;;5.37;76.22;97285.94;5048469;28;20449;-72
2024/01/01 09:03:40;;;;;;;7.23;3.40;;;6.40;77.50;;;5.61;74.57;97297.16;5047696;28;20571;-71
2024/01/01 09:06:07;;;;;;;5.07;3.27;;;6.50;77.10;;;5.32;75.43;97271.50;5049475;28;20511;-71
2024/01/01 09:08:34;;;;;;;6.30;3.20;;;6.50;77.10;;;5.70;74.34;97302.34;5050496;28;20972;-69
2024/01/01 09:11:02;;;;;;;5.63;3.10;;;6.60;77.00;;;5.85;74.02;97312.91;5050270;28;20586;-70
2024/01/01 09:13:31;;;;;;;4.97;2.80;;;6.70;76.90;;;5.65;74.56;97303.75;5049735;28;20452;-69
2024/01/01 09:16:00;;;;;;;6.00;3.43;;;6.70;76.60;;;5.46;75.10;97312.56;5049583;28;20453;-69
2024/01/01 09:18:27;;;;;;;5.07;3.20;;;6.50;76.70;;;5.37;75.30;97322.63;5048572;28;20507;-69
2024/01/01 09:20:54;;;;;;;4.30;2.93;;;6.40;76.80;;;5.26;75.73;97310.63;5056365;28;20516;-70
2024/01/01 09:23:25;;;;;;;5.70;2.90;;;6.30;77.00;;;4.81;75.71;97239.56;5049312;28;20450;-70
2024/01/01 09:25:54;;;;;;;3.33;2.33;;;6.30;76.90;;;5.32;75.48;97325.91;5031709;28;20447;-69
2024/01/01 09:28:21;;;;;;;5.70;3.60;;;6.30;77.00;;;5.58;75.39;97319.00;5048995;28;20478;-70
2024/01/01 09:30:50;;;;;;;4.40;2.90;;;6.50;77.00;;;5.77;73.43;97328.16;5048862;28;20946;-70
2024/01/01 09:33:17;;;;;;;5.70;3.10;;;6.70;76.40;;;5.94;73.20;97317.88;5037161;28;20458;-70
2024/01/01 09:35:47;;;;;;;3.10;2.47;;;6.80;76.30;;;5.97;73.05;97313.97;5049255;28;21103;-69
2024/01/01 09:38:14;;;;;;;6.70;2.87;;;7.00;76.00;;;6.23;72.15;97315.06;5046313;28;20812;-70
2024/01/01 09:40:43;;;;;;;4.13;2.10;;;7.10;75.60;;;6.37;71.00;97315.91;5051943;28;20517;-69
2024/01/01 09:43:16;;;;;;;4.73;2.10;;;7.30;75.30;;;6.29;71.04;97308.88;5047907;28;20450;-70
2024/01/01 09:45:44;;;;;;;6.10;2.97;;;7.30;74.80;;;6.27;70.80;97316.31;5039798;28;20550;-70
2024/01/01 09:48:13;;;;;;;7.97;2.53;;;7.20;74.40;;;6.32;69.79;97310.34;5046970;28;20460;-70
2024/01/01 09:50:40;;;;;;;2.93;1.90;;;7.30;74.10;;;6.21;70.71;97317.13;5050043;28;20434;-70
2024/01/01 09:53:08;;;;;;;5.47;2.47;;;7.30;74.10;;;6.17;70.54;97300.63;5046044;28;20451;-70
2024/01/01 09:55:37;;;;;;;4.20;2.43;;;7.30;74.00;;;6.42;69.55;97313.41;5052635;28;20529;-71
2024/01/01 09:58:05;;;;;;;9.87;2.17;;;7.40;73.50;;;6.25;69.60;97329.13;5048948;28;20460;-69
2024/01/01 10:00:34;;;;;;;4.30;1.70;;;7.40;73.20;;;6.31;69.66;97311.38;5053756;28;20511;-69
2024/01/01 10:03:10;;;;;;;8.00;2.20;;;7.30;73.10;;;6.65;68.27;97309.50;5053175;28;20453;-69
2024/01/01 10:05:41;;;;;;;2.57;1.83;;;7.60;73.00;;;6.62;68.33;97307.25;5052824;28;20468;-69
2024/01/01 10:08:15;;;;;;;4.03;1.83;;;7.60;72.60;;;6.46;68.40;97309.31;5053834;28;20449;-70
2024/01/01 10:10:45;;;;;;;4.87;2.20;;;7.60;72.20;;;6.47;68.59;97310.97;5055766;28;20513;-68
2024/01/01 10:13:15;;;;;;;5.00;2.00;;;7.50;72.30;;;6.62;68.28;97309.94;5056172;28;20550;-69
2024/01/01 10:15:45;;;;;;;3.67;1.93;;;7.50;72.80;;;6.66;67.64;97300.41;5057071;28;20946;-69
2024/01/01 10:18:15;;;;;;;11.47;2.30;;;7.60;72.00;;;6.57;68.08;97298.97;5047443;28;20787;-70
2024/01/01 10:20:44;;;;;;;3.73;1.37;;;7.60;71.90;;;6.39;68.47;97281.63;5053292;28;20464;-69
2024/01/01 10:23:27;;;;;;;3.50;1.40;;;7.60;71.80;;;6.38;68.80;97296.09;5051167;28;20528;-70
2024/01/01 10:26:06;;;;;;;3.27;1.63;;;7.40;72.10;;;6.50;68.79;97294.44;5052562;28;20504;-71
2024/01/01 10:28:34;;;;;;;23.53;2.57;;;7.40;72.30;;;6.98;67.42;97295.19;5061403;28;20442;-68
2024/01/01 10:31:05;;;;;;;6.83;2.63;;;7.80;72.10;;;6.88;66.96;97284.91;5052011;28;20517;-68